Time;durP1;ratioP1;P1;durP2;ratioP2;P2;SDS_P1;SDS_P2;PMS_P1;PMS_P2;Temp;Humidity;BMP_temperature;BMP_pressure;BME280_temperature;BME280_humidity;BME280_pressure;Samples;Min_cycle;Max_cycle;Signal;HPM_P1;HPM_P2
2023/08/10 00:01:18;;;;;;;;;7.25;6.50;;;;;23.24;48.26;101446.13;4999775;28;45597;-48
2023/08/10 00:03:44;;;;;;;;;8.00;6.00;;;;;23.23;48.26;101454.13;4999109;28;46170;-50
2023/08/10 00:06:09;;;;;;;;;8.25;5.00;;;;;23.24;48.26;101456.69;4999197;28;45241;-46
2023/08/10 00:08:34;;;;;;;;;6.50;6.50;;;;;23.23;48.12;101446.19;4999118;28;45342;-43
2023/08/10 00:11:00;;;;;;;;;7.00;6.00;;;;;23.21;48.27;101442.78;4999433;28;45226;-47
2023/08/10 00:13:25;;;;;;;;;7.00;5.75;;;;;23.23;48.24;101438.25;4999280;28;46098;-45
2023/08/10 00:15:50;;;;;;;;;8.50;6.25;;;;;23.22;48.17;101432.13;4999021;28;45400;-46
2023/08/10 00:18:16;;;;;;;;;7.75;6.25;;;;;23.22;48.30;101437.41;4981527;28;45452;-50
2023/08/10 00:20:41;;;;;;;;;5.25;5.25;;;;;23.20;48.18;101435.81;4999371;28;45234;-46
2023/08/10 00:23:06;;;;;;;;;6.50;6.50;;;;;23.22;48.08;101433.91;4998878;28;45393;-48
2023/08/10 00:25:33;;;;;;;;;10.25;6.00;;;;;23.22;48.63;101441.84;4998593;28;51350;-50
2023/08/10 00:27:58;;;;;;;;;7.25;7.25;;;;;23.23;48.29;101443.53;4999353;28;45345;-44
2023/08/10 00:30:24;;;;;;;;;7.33;7.33;;;;;23.23;48.42;101440.91;4998601;28;52423;-48
2023/08/10 00:32:49;;;;;;;;;7.00;5.25;;;;;23.24;48.44;101439.97;4981058;28;45904;-46
2023/08/10 00:35:15;;;;;;;;;7.75;7.50;;;;;23.22;48.28;101433.91;4998839;28;45376;-48
2023/08/10 00:37:40;;;;;;;;;6.75;6.75;;;;;23.22;48.26;101425.97;4998865;28;45337;-48
2023/08/10 00:40:09;;;;;;;;;6.00;5.50;;;;;23.20;48.70;101428.72;4999027;28;45329;-46
2023/08/10 00:42:34;;;;;;;;;7.25;7.00;;;;;23.19;48.49;101429.66;4998595;28;46255;-49
2023/08/10 00:44:59;;;;;;;;;6.50;6.00;;;;;23.17;48.79;101435.00;4998945;28;45223;-51
2023/08/10 00:47:26;;;;;;;;;6.00;6.00;;;;;23.20;48.47;101430.53;4980963;28;45407;-44
2023/08/10 00:49:53;;;;;;;;;5.50;5.25;;;;;23.19;48.13;101436.72;4998754;28;45615;-48
2023/08/10 00:52:18;;;;;;;;;5.75;5.75;;;;;23.20;48.32;101427.88;4998606;28;45534;-48
2023/08/10 00:54:43;;;;;;;;;7.00;7.00;;;;;23.21;48.83;101426.91;4998468;28;45320;-44
2023/08/10 00:57:09;;;;;;;;;7.50;7.50;;;;;23.19;48.15;101428.78;4998765;28;45313;-47
2023/08/10 00:59:36;;;;;;;;;8.00;8.00;;;;;23.20;48.57;101431.34;4998685;28;45672;-46
2023/08/10 01:02:01;;;;;;;;;7.00;7.00;;;;;23.22;48.56;101441.84;4998470;28;46305;-46
2023/08/10 01:04:27;;;;;;;;;6.00;6.00;;;;;23.20;48.63;101434.00;4998567;28;45985;-45
2023/08/10 01:07:04;;;;;;;;;10.50;6.75;;;;;23.20;48.61;101431.34;4997432;28;45465;-45
2023/08/10 01:09:39;;;;;;;;;6.75;6.75;;;;;23.21;48.75;101448.06;4998838;28;45457;-50
2023/08/10 01:12:17;;;;;;;;;8.25;6.00;;;;;23.22;48.24;101453.28;4998255;28;45250;-48
2023/08/10 01:14:54;;;;;;;;;9.00;7.50;;;;;23.22;48.71;101453.28;4998391;28;45243;-41
2023/08/10 01:17:26;;;;;;;;;9.00;6.00;;;;;23.22;48.08;101452.41;4998421;28;45399;-46
2023/08/10 01:19:53;;;;;;;;;8.00;7.25;;;;;23.23;48.56;101455.00;4998654;28;45393;-45
2023/08/10 01:22:35;;;;;;;;;6.00;6.00;;;;;23.24;48.58;101461.13;4998152;28;45348;-46
2023/08/10 01:25:06;;;;;;;;;12.75;8.75;;;;;23.22;48.94;101463.00;4998547;28;45836;-45
2023/08/10 01:27:32;;;;;;;;;6.00;6.00;;;;;23.23;48.46;101462.06;4981388;28;45405;-47
2023/08/10 01:30:00;;;;;;;;;8.00;6.00;;;;;23.22;48.67;101455.06;4998552;28;45439;-52
2023/08/10 01:32:28;;;;;;;;;8.75;7.00;;;;;23.22;48.51;101460.34;4997981;28;46367;-53
2023/08/10 01:34:54;;;;;;;;;9.00;8.50;;;;;23.22;49.13;101458.56;4997966;28;45373;-50
2023/08/10 01:37:19;;;;;;;;;7.25;7.00;;;;;23.22;48.59;101457.69;4998130;28;45397;-53
2023/08/10 01:39:45;;;;;;;;;5.75;5.75;;;;;23.20;48.98;101460.44;4998158;28;45521;-45
2023/08/10 01:42:11;;;;;;;;;10.25;6.00;;;;;23.19;48.80;101463.16;4997842;28;47166;-45
2023/08/10 01:44:36;;;;;;;;;6.00;6.00;;;;;23.19;48.78;101466.69;4997771;28;45484;-49
2023/08/10 01:47:07;;;;;;;;;7.75;6.00;;;;;23.20;48.40;101463.09;4998272;28;45340;-49
2023/08/10 01:49:35;;;;;;;;;5.00;5.00;;;;;23.22;48.93;101463.00;4998456;28;45290;-41
2023/08/10 01:52:07;;;;;;;;;7.00;5.00;;;;;23.21;48.84;101463.94;4997963;28;46277;-42
2023/08/10 01:54:36;;;;;;;;;9.00;7.50;;;;;23.21;48.93;101466.56;4998106;28;45779;-51
2023/08/10 01:57:01;;;;;;;;;8.00;7.00;;;;;23.22;48.35;101468.28;4998120;28;45364;-51
2023/08/10 01:59:27;;;;;;;;;6.75;6.00;;;;;23.22;48.64;101471.78;4997945;28;45638;-44
2023/08/10 02:01:52;;;;;;;;;7.75;7.00;;;;;23.23;48.80;101476.16;4997476;28;45392;-48
2023/08/10 02:04:18;;;;;;;;;7.75;6.00;;;;;23.20;48.67;101465.72;4979720;28;45425;-52
2023/08/10 02:06:43;;;;;;;;;7.00;6.00;;;;;23.23;49.04;101476.16;4997539;28;45403;-44
2023/08/10 02:09:08;;;;;;;;;5.75;5.75;;;;;23.22;48.57;101470.94;4997746;28;45370;-47
2023/08/10 02:11:34;;;;;;;;;7.00;7.00;;;;;23.22;48.99;101465.63;4997696;28;45396;-48
2023/08/10 02:14:00;;;;;;;;;6.00;5.50;;;;;23.21;48.97;101466.56;4997358;28;45238;-50
2023/08/10 02:16:25;;;;;;;;;6.75;6.75;;;;;23.20;48.97;101459.59;4997509;28;45358;-49
2023/08/10 02:18:50;;;;;;;;;6.50;5.75;;;;;23.20;49.04;101465.72;4980059;28;45571;-50
2023/08/10 02:21:16;;;;;;;;;9.00;7.00;;;;;23.20;48.71;101462.25;4996565;28;64833;-48
2023/08/10 02:23:41;;;;;;;;;8.00;6.00;;;;;23.18;48.84;101457.00;4997338;28;45255;-47
2023/08/10 02:26:06;;;;;;;;;10.50;6.25;;;;;23.17;48.67;101458.81;4997659;28;45303;-44
2023/08/10 02:28:32;;;;;;;;;8.00;6.50;;;;;23.19;48.93;101460.50;4997675;28;45376;-51
2023/08/10 02:30:59;;;;;;;;;5.75;5.75;;;;;23.16;49.35;101453.59;4997021;28;46141;-44
2023/08/10 02:33:24;;;;;;;;;7.25;6.00;;;;;23.16;48.64;101459.75;4997006;28;45329;-49
2023/08/10 02:35:49;;;;;;;;;6.25;6.25;;;;;23.15;49.17;101447.47;4997149;28;45432;-52
2023/08/10 02:38:15;;;;;;;;;9.00;7.25;;;;;23.18;48.71;101462.28;4996771;28;49658;-49
2023/08/10 02:40:40;;;;;;;;;7.00;7.00;;;;;23.16;48.82;101459.75;4996935;28;46942;-52
2023/08/10 02:43:05;;;;;;;;;6.00;6.00;;;;;23.17;48.93;101450.00;4997221;28;45404;-50
2023/08/10 02:45:31;;;;;;;;;5.75;5.50;;;;;23.15;49.38;101455.38;4996809;28;47796;-49
2023/08/10 02:47:57;;;;;;;;;6.25;6.25;;;;;23.15;49.09;101454.56;4997113;28;45535;-47
2023/08/10 02:50:22;;;;;;;;;7.25;6.50;;;;;23.15;49.10;101460.69;4996644;28;46081;-45
2023/08/10 02:52:47;;;;;;;;;9.00;7.33;;;;;23.15;48.99;101460.69;4996078;28;63709;-50
2023/08/10 02:55:12;;;;;;;;;10.00;8.50;;;;;23.15;49.01;101462.47;4996368;28;53626;-44
2023/08/10 02:57:38;;;;;;;;;8.75;8.00;;;;;23.15;48.80;101471.25;4997323;28;45298;-49
2023/08/10 03:00:06;;;;;;;;;6.00;6.00;;;;;23.15;49.08;101471.25;4996880;28;45970;-50
2023/08/10 03:02:32;;;;;;;;;7.00;6.25;;;;;23.14;49.16;101461.63;4996692;28;45205;-49
2023/08/10 03:04:58;;;;;;;;;9.00;7.50;;;;;23.14;48.92;101464.25;4996758;28;45227;-49
2023/08/10 03:07:23;;;;;;;;;7.25;7.25;;;;;23.14;49.16;101463.41;4996701;28;45500;-47
2023/08/10 03:09:50;;;;;;;;;6.50;6.50;;;;;23.13;49.49;101454.63;4996478;28;45269;-50
2023/08/10 03:12:15;;;;;;;;;11.25;6.50;;;;;23.14;49.02;101450.19;4996573;28;45378;-52
2023/08/10 03:14:40;;;;;;;;;8.50;7.75;;;;;23.13;48.90;101446.69;4978980;28;45449;-47
2023/08/10 03:17:06;;;;;;;;;8.50;7.50;;;;;23.12;49.10;101450.25;4997117;28;45565;-45
2023/08/10 03:19:31;;;;;;;;;7.00;7.00;;;;;23.14;49.29;101453.69;4996089;28;53981;-46
2023/08/10 03:21:58;;;;;;;;;6.25;6.25;;;;;23.13;49.37;101451.97;4996379;28;45791;-46
2023/08/10 03:24:23;;;;;;;;;10.25;8.50;;;;;23.14;49.01;101452.84;4996241;28;50808;-48
2023/08/10 03:26:48;;;;;;;;;10.25;8.00;;;;;23.13;48.91;101449.34;4996694;28;45511;-49
2023/08/10 03:29:14;;;;;;;;;6.75;6.75;;;;;23.10;49.39;101440.72;4995860;28;58545;-44
2023/08/10 03:31:39;;;;;;;;;6.50;6.50;;;;;23.11;49.16;101443.28;4999479;28;56521;-44
2023/08/10 03:34:04;;;;;;;;;9.00;8.00;;;;;23.09;49.26;101447.81;4999816;28;45412;-46
2023/08/10 03:36:30;;;;;;;;;6.75;6.75;;;;;23.11;49.45;101447.72;5000084;28;45464;-43
2023/08/10 03:38:55;;;;;;;;;10.00;7.00;;;;;23.10;49.06;101448.66;4999618;28;46598;-45
2023/08/10 03:41:20;;;;;;;;;6.25;5.50;;;;;23.09;49.24;101453.09;4999792;28;45262;-42
2023/08/10 03:43:46;;;;;;;;;3.50;3.00;;;;;23.10;49.21;101464.53;4999910;28;45254;-48
2023/08/10 03:46:12;;;;;;;;;9.00;7.00;;;;;23.08;48.99;101451.41;5000242;28;45697;-42
2023/08/10 03:48:37;;;;;;;;;5.75;4.00;;;;;23.12;48.89;101460.84;4999805;28;45989;-48
2023/08/10 03:51:02;;;;;;;;;6.75;6.00;;;;;23.13;48.59;101454.63;4998899;28;62101;-46
2023/08/10 03:53:28;;;;;;;;;6.50;6.00;;;;;23.12;49.30;101458.19;4999708;28;45431;-42
2023/08/10 03:55:53;;;;;;;;;7.50;7.00;;;;;23.12;49.24;101460.84;4999819;28;45500;-44
2023/08/10 03:58:18;;;;;;;;;5.00;5.00;;;;;23.13;49.13;101459.91;4999359;28;48474;-47
2023/08/10 04:00:45;;;;;;;;;7.50;7.50;;;;;23.13;49.22;101459.91;4999470;28;45383;-50
2023/08/10 04:03:12;;;;;;;;;9.00;6.75;;;;;23.15;49.36;101468.63;4999771;28;45337;-48
2023/08/10 04:05:39;;;;;;;;;5.25;5.25;;;;;23.12;49.17;101466.13;4999262;28;58866;-50
2023/08/10 04:08:08;;;;;;;;;6.25;6.25;;;;;23.15;49.01;101478.34;4999184;28;45953;-50
2023/08/10 04:10:34;;;;;;;;;7.50;5.75;;;;;23.15;49.26;101483.63;4999316;28;45385;-47
2023/08/10 04:12:59;;;;;;;;;6.75;6.75;;;;;23.13;49.21;101481.06;4999408;28;45321;-49
2023/08/10 04:15:25;;;;;;;;;8.25;7.00;;;;;23.11;49.00;101469.72;4999493;28;45413;-51
2023/08/10 04:17:50;;;;;;;;;8.50;6.50;;;;;23.10;49.32;101461.88;4998988;28;45372;-46
2023/08/10 04:20:15;;;;;;;;;8.25;7.00;;;;;23.09;49.00;101468.09;4998842;28;52643;-48
2023/08/10 04:22:41;;;;;;;;;6.25;6.00;;;;;23.08;49.19;101477.84;4999588;28;45388;-49
2023/08/10 04:25:07;;;;;;;;;6.00;6.00;;;;;23.09;49.36;101479.53;4999418;28;45759;-49
2023/08/10 04:27:35;;;;;;;;;8.00;6.25;;;;;23.09;49.33;101473.38;4998922;28;46325;-48
2023/08/10 04:30:03;;;;;;;;;6.00;6.00;;;;;23.09;49.10;101479.53;4998912;28;45235;-50
2023/08/10 04:32:28;;;;;;;;;8.50;7.00;;;;;23.07;49.68;101475.25;4999027;28;45373;-47
2023/08/10 04:34:53;;;;;;;;;7.00;7.00;;;;;23.08;48.92;101479.63;4998750;28;50507;-49
2023/08/10 04:37:19;;;;;;;;;13.00;8.75;;;;;23.03;48.98;101479.88;4998288;28;58064;-47
2023/08/10 04:39:45;;;;;;;;;7.25;6.00;;;;;23.00;49.36;101480.91;4998909;28;45330;-45
2023/08/10 04:42:10;;;;;;;;;6.25;6.25;;;;;22.99;49.37;101483.63;4998121;28;45257;-51
2023/08/10 04:44:35;;;;;;;;;7.50;7.25;;;;;22.97;49.46;101485.50;4999137;28;45456;-52
2023/08/10 04:47:01;;;;;;;;;6.00;6.00;;;;;23.00;49.50;101477.41;4981013;28;46143;-48
2023/08/10 04:49:28;;;;;;;;;6.00;6.00;;;;;23.00;49.56;101475.63;4969915;28;45402;-50
2023/08/10 04:51:54;;;;;;;;;8.00;6.50;;;;;23.00;49.18;101483.56;4979330;28;45362;-47
2023/08/10 04:54:20;;;;;;;;;6.25;5.00;;;;;22.97;49.52;101485.50;4979274;28;45485;-48
2023/08/10 04:56:46;;;;;;;;;6.50;5.50;;;;;22.98;49.23;101489.88;4979113;28;47011;-43
2023/08/10 04:59:11;;;;;;;;;10.25;6.25;;;;;22.97;49.28;101486.34;4985777;28;45311;-49
2023/08/10 05:01:38;;;;;;;;;5.00;5.00;;;;;22.96;49.15;101483.81;4998669;28;45222;-49
2023/08/10 05:04:03;;;;;;;;;7.25;6.25;;;;;22.93;49.17;101486.63;4998877;28;45219;-51
2023/08/10 05:06:29;;;;;;;;;8.25;6.00;;;;;22.90;49.45;101478.84;4998195;28;46572;-48
2023/08/10 05:08:54;;;;;;;;;8.00;6.75;;;;;22.88;49.07;101483.34;4998319;28;45274;-46
2023/08/10 05:11:19;;;;;;;;;5.00;5.00;;;;;22.85;49.07;101493.19;4998330;28;45336;-45
2023/08/10 05:13:45;;;;;;;;;6.00;6.00;;;;;22.82;49.30;101496.00;4981258;28;45377;-50
2023/08/10 05:16:10;;;;;;;;;5.75;5.75;;;;;22.78;48.99;101497.09;4997670;28;58878;-49
2023/08/10 05:18:35;;;;;;;;;4.50;4.25;;;;;22.80;49.38;101497.03;4997816;28;56760;-43
2023/08/10 05:21:02;;;;;;;;;5.50;5.50;;;;;22.81;49.29;101510.13;4997750;28;56212;-48
2023/08/10 05:23:27;;;;;;;;;5.50;5.50;;;;;22.82;49.28;101508.38;4998378;28;45922;-45
2023/08/10 05:25:53;;;;;;;;;5.50;5.50;;;;;22.84;48.95;101499.41;4997507;28;61520;-46
2023/08/10 05:28:18;;;;;;;;;7.25;6.00;;;;;22.88;48.93;101499.22;4998097;28;45370;-46
2023/08/10 05:30:43;;;;;;;;;6.25;6.00;;;;;22.85;48.82;101487.91;4998419;28;45393;-46
2023/08/10 05:33:09;;;;;;;;;7.00;7.00;;;;;22.84;48.71;101485.31;4980646;28;45579;-42
2023/08/10 05:35:35;;;;;;;;;5.50;5.25;;;;;22.84;49.15;101486.19;4997887;28;45317;-44
2023/08/10 05:38:00;;;;;;;;;7.25;6.75;;;;;22.87;48.94;101489.59;4998054;28;45222;-44
2023/08/10 05:40:26;;;;;;;;;5.50;5.00;;;;;22.85;48.85;101482.63;4998028;28;45216;-49
2023/08/10 05:42:51;;;;;;;;;4.00;4.00;;;;;22.83;49.03;101479.19;4998096;28;45528;-49
2023/08/10 05:45:19;;;;;;;;;6.00;4.25;;;;;22.84;48.76;101491.47;4998049;28;46444;-52
2023/08/10 05:47:45;;;;;;;;;5.25;4.25;;;;;22.84;49.07;101486.19;4998132;28;45289;-48
2023/08/10 05:50:11;;;;;;;;;5.00;5.00;;;;;22.85;48.79;101479.97;4997834;28;45382;-50
2023/08/10 05:52:37;;;;;;;;;5.00;5.00;;;;;22.87;48.86;101473.75;4997620;28;45456;-46
2023/08/10 05:55:03;;;;;;;;;7.00;4.50;;;;;22.91;48.93;101469.97;4997569;28;45432;-46
2023/08/10 05:57:29;;;;;;;;;5.00;5.00;;;;;22.94;48.94;101475.09;4997754;28;45195;-50
2023/08/10 05:59:54;;;;;;;;;4.50;4.00;;;;;22.95;48.61;101468.88;4997756;28;45795;-51
2023/08/10 06:02:20;;;;;;;;;5.75;5.75;;;;;22.97;48.78;101459.91;4998295;28;45596;-47
2023/08/10 06:04:45;;;;;;;;;4.25;4.00;;;;;22.96;48.69;101463.50;4997780;28;46311;-48
2023/08/10 06:07:12;;;;;;;;;5.00;5.00;;;;;22.94;48.69;101454.78;4996933;28;45332;-50
2023/08/10 06:09:37;;;;;;;;;6.00;6.00;;;;;22.99;48.51;101463.34;4997549;28;45370;-48
2023/08/10 06:12:03;;;;;;;;;3.75;3.75;;;;;23.00;48.89;101454.47;4997800;28;45329;-49
2023/08/10 06:14:28;;;;;;;;;6.25;5.25;;;;;23.00;48.78;101456.25;4997207;28;45404;-50
2023/08/10 06:16:54;;;;;;;;;6.75;6.00;;;;;22.99;48.47;101454.53;4997366;28;45381;-50
2023/08/10 06:19:19;;;;;;;;;5.00;4.75;;;;;22.97;48.66;101461.72;4997826;28;45491;-50
2023/08/10 06:21:44;;;;;;;;;5.25;4.75;;;;;22.98;48.45;101466.06;4997407;28;45277;-47
2023/08/10 06:24:10;;;;;;;;;7.00;5.00;;;;;22.96;48.68;101457.38;4997178;28;45985;-50
2023/08/10 06:26:36;;;;;;;;;4.75;4.75;;;;;22.93;48.48;101452.25;4997220;28;45327;-48
2023/08/10 06:29:04;;;;;;;;;5.25;5.25;;;;;22.92;48.41;101455.81;4997346;28;45374;-45
2023/08/10 06:31:30;;;;;;;;;4.00;4.00;;;;;22.90;48.46;101455.06;4997369;28;45306;-47
2023/08/10 06:33:55;;;;;;;;;4.25;4.00;;;;;22.88;48.47;101459.56;4977646;28;46769;-49
2023/08/10 06:36:21;;;;;;;;;7.75;5.25;;;;;22.83;48.55;101446.63;4977701;28;45349;-49
2023/08/10 06:38:47;;;;;;;;;6.00;5.00;;;;;22.84;48.92;101443.91;4977461;28;45664;-46
2023/08/10 06:41:12;;;;;;;;;5.25;5.00;;;;;22.85;48.66;101450.91;4977255;28;45412;-52
2023/08/10 06:43:37;;;;;;;;;6.50;5.00;;;;;22.85;48.41;101453.53;4976783;28;45245;-49
2023/08/10 06:46:03;;;;;;;;;5.00;5.00;;;;;22.88;48.61;101454.28;4977008;28;47810;-44
2023/08/10 06:48:28;;;;;;;;;5.50;4.00;;;;;22.90;48.75;101447.13;4975573;28;45488;-49
2023/08/10 06:50:53;;;;;;;;;8.50;4.50;;;;;22.91;48.55;101447.06;4977062;28;45540;-47
2023/08/10 06:53:19;;;;;;;;;6.75;4.00;;;;;22.93;48.83;101436.38;4977022;28;45360;-51
2023/08/10 06:55:45;;;;;;;;;4.75;3.75;;;;;22.98;48.46;101437.00;4977074;28;45513;-48
2023/08/10 06:58:12;;;;;;;;;4.50;3.25;;;;;23.00;48.41;101443.03;4976975;28;45407;-50
2023/08/10 07:00:37;;;;;;;;;7.00;5.00;;;;;23.00;48.38;101440.38;4975724;28;45479;-50
2023/08/10 07:03:03;;;;;;;;;5.75;4.75;;;;;23.02;47.97;101441.16;4976696;28;45557;-49
2023/08/10 07:05:29;;;;;;;;;5.75;4.00;;;;;23.00;48.87;101430.69;4974929;28;45739;-47
2023/08/10 07:07:55;;;;;;;;;4.00;4.00;;;;;23.01;48.44;101431.50;4988449;28;45451;-49
2023/08/10 07:10:21;;;;;;;;;3.75;3.50;;;;;23.00;48.21;101427.16;4996731;28;45635;-50
2023/08/10 07:12:46;;;;;;;;;5.00;4.75;;;;;23.00;48.67;101427.16;4995975;28;46117;-52
2023/08/10 07:15:12;;;;;;;;;5.75;5.75;;;;;23.02;48.14;101420.00;4996033;28;49400;-50
2023/08/10 07:17:38;;;;;;;;;6.00;4.00;;;;;23.03;48.25;101412.94;4996065;28;45302;-48
2023/08/10 07:20:06;;;;;;;;;4.50;4.50;;;;;23.04;48.41;101418.13;4979095;28;45390;-50
2023/08/10 07:22:33;;;;;;;;;4.00;4.00;;;;;23.06;48.18;101416.25;4995919;28;46492;-48
2023/08/10 07:25:03;;;;;;;;;5.50;5.00;;;;;23.08;48.45;101419.69;4996482;28;45838;-48
2023/08/10 07:27:29;;;;;;;;;3.75;3.75;;;;;23.10;48.33;101438.91;4996650;28;45580;-43
2023/08/10 07:29:56;;;;;;;;;6.00;6.00;;;;;23.11;48.28;101439.78;4996425;28;45392;-47
2023/08/10 07:32:21;;;;;;;;;5.25;4.00;;;;;23.13;48.09;101457.25;4996503;28;46411;-51
2023/08/10 07:34:46;;;;;;;;;4.75;4.00;;;;;23.14;47.77;101460.78;4996255;28;45334;-47
2023/08/10 07:37:12;;;;;;;;;4.75;4.75;;;;;23.17;48.37;101473.81;4995735;28;60405;-51
2023/08/10 07:39:37;;;;;;;;;5.00;3.50;;;;;23.17;48.15;101479.97;4996533;28;45457;-48
2023/08/10 07:42:03;;;;;;;;;4.00;4.00;;;;;23.20;48.33;101478.13;4995624;28;63224;-48
2023/08/10 07:44:28;;;;;;;;;6.00;5.00;;;;;23.23;48.11;101485.84;4996221;28;45334;-49
2023/08/10 07:46:54;;;;;;;;;5.00;5.00;;;;;23.26;47.69;101477.75;4996358;28;49632;-48
2023/08/10 07:49:20;;;;;;;;;5.50;5.50;;;;;23.26;48.00;101483.03;4996384;28;45690;-48
2023/08/10 07:51:47;;;;;;;;;3.75;3.00;;;;;23.30;47.67;101487.22;4996018;28;46430;-53
2023/08/10 07:54:13;;;;;;;;;1.50;0.00;;;;;23.31;47.55;101488.94;4996122;28;45283;-49
2023/08/10 07:56:39;;;;;;;;;3.50;3.00;;;;;23.32;47.96;101490.63;4996314;28;45474;-47
2023/08/10 07:59:05;;;;;;;;;5.00;5.00;;;;;23.31;48.03;101486.28;4996318;28;45483;-50
2023/08/10 08:01:30;;;;;;;;;4.00;4.00;;;;;23.35;47.51;101487.81;4995880;28;46309;-47
2023/08/10 08:03:55;;;;;;;;;2.50;2.50;;;;;23.38;47.98;101484.13;4996229;28;45372;-49
2023/08/10 08:06:21;;;;;;;;;6.00;4.00;;;;;23.36;47.58;101486.88;4992292;28;51761;-48
2023/08/10 08:08:46;;;;;;;;;5.50;5.25;;;;;23.37;47.98;101493.88;4984423;28;45460;-47
2023/08/10 08:11:11;;;;;;;;;6.00;5.00;;;;;23.35;48.09;101492.25;4968514;28;47293;-46
2023/08/10 08:13:37;;;;;;;;;6.50;4.25;;;;;23.40;47.36;101499.00;4985032;28;47753;-47
2023/08/10 08:16:02;;;;;;;;;4.25;3.25;;;;;23.42;47.82;101497.13;4985858;28;46453;-46
2023/08/10 08:18:45;;;;;;;;;5.00;5.00;;;;;23.43;47.78;101504.09;4990033;28;45506;-45
2023/08/10 08:21:13;;;;;;;;;6.25;4.00;;;;;23.45;47.26;101512.78;4985129;28;46140;-51
2023/08/10 08:23:38;;;;;;;;;6.50;4.00;;;;;23.45;47.47;101511.94;4988481;28;45445;-45
2023/08/10 08:26:04;;;;;;;;;4.00;4.00;;;;;23.46;47.71;101511.84;4989475;28;45460;-51
2023/08/10 08:28:29;;;;;;;;;5.25;5.25;;;;;23.47;47.45;101518.00;4987707;28;45509;-52
2023/08/10 08:30:54;;;;;;;;;5.50;4.50;;;;;23.50;47.74;101524.91;4988306;28;66111;-48
2023/08/10 08:33:20;;;;;;;;;4.00;3.75;;;;;23.49;47.44;101510.81;4988608;28;45484;-50
2023/08/10 08:35:46;;;;;;;;;6.50;4.00;;;;;23.50;47.14;101509.03;4987546;28;45375;-48
2023/08/10 08:38:15;;;;;;;;;4.00;3.75;;;;;23.50;47.75;101509.03;4989276;28;45499;-46
2023/08/10 08:40:41;;;;;;;;;4.00;4.00;;;;;23.50;47.28;101504.59;4997115;28;46162;-47
2023/08/10 08:43:07;;;;;;;;;4.00;3.00;;;;;23.51;47.84;101508.09;4998743;28;45800;-49
2023/08/10 08:45:33;;;;;;;;;5.75;5.00;;;;;23.51;47.49;101501.00;4998907;28;45396;-45
2023/08/10 08:47:59;;;;;;;;;5.75;4.00;;;;;23.53;47.66;101503.59;4999408;28;45478;-45
2023/08/10 08:50:28;;;;;;;;;5.50;3.75;;;;;23.53;47.19;101493.00;4998883;28;46278;-50
2023/08/10 08:52:54;;;;;;;;;5.50;4.00;;;;;23.53;47.09;101482.41;4998440;28;45174;-45
2023/08/10 08:55:20;;;;;;;;;5.75;5.00;;;;;23.53;47.16;101480.59;4998798;28;45529;-44
2023/08/10 08:57:47;;;;;;;;;4.25;3.00;;;;;23.55;47.67;101472.56;4998934;28;45424;-46
2023/08/10 09:00:13;;;;;;;;;3.25;3.25;;;;;23.55;47.22;101467.28;4998552;28;46378;-45
2023/08/10 09:02:39;;;;;;;;;3.75;3.75;;;;;23.56;47.16;101455.75;4998481;28;45325;-45
2023/08/10 09:05:05;;;;;;;;;5.75;4.00;;;;;23.58;47.63;101451.22;4998599;28;45222;-47
2023/08/10 09:07:30;;;;;;;;;4.50;3.25;;;;;23.57;47.28;101450.41;4998952;28;45821;-45
2023/08/10 09:09:56;;;;;;;;;4.00;4.00;;;;;23.59;47.25;101448.47;4998597;28;45901;-46
2023/08/10 09:12:30;;;;;;;;;7.25;4.50;;;;;23.59;47.30;101445.84;4998355;28;45266;-41
2023/08/10 09:15:06;;;;;;;;;4.75;4.75;;;;;23.61;47.82;101440.47;4998775;28;45309;-40
2023/08/10 09:17:33;;;;;;;;;4.75;3.00;;;;;23.61;47.82;101433.38;4998594;28;45491;-41
2023/08/10 09:20:00;;;;;;;;;4.00;4.00;;;;;23.63;47.92;101426.19;4998475;28;45471;-51
2023/08/10 09:22:33;;;;;;;;;5.00;4.00;;;;;23.65;47.62;101425.25;4998254;28;45438;-49
2023/08/10 09:25:00;;;;;;;;;4.50;3.00;;;;;23.65;47.53;101428.75;4998608;28;45467;-48
2023/08/10 09:27:27;;;;;;;;;3.00;3.00;;;;;23.67;47.50;101423.38;4997795;28;45249;-48
2023/08/10 09:30:03;;;;;;;;;5.50;4.00;;;;;23.68;48.00;101428.56;4997934;28;45820;-50
2023/08/10 09:32:29;;;;;;;;;4.00;3.00;;;;;23.67;47.49;101426.88;4998100;28;45280;-50
2023/08/10 09:34:54;;;;;;;;;6.00;3.50;;;;;23.66;48.10;101438.41;4998194;28;45238;-51
2023/08/10 09:37:20;;;;;;;;;5.00;4.00;;;;;23.68;47.48;101438.31;4980513;28;45500;-52
2023/08/10 09:39:46;;;;;;;;;5.00;4.75;;;;;23.68;48.00;101433.88;4997908;28;46092;-46
2023/08/10 09:42:12;;;;;;;;;4.00;4.00;;;;;23.68;47.70;101436.50;4998038;28;45763;-47
2023/08/10 09:44:47;;;;;;;;;3.75;3.00;;;;;23.67;47.50;101441.91;4998008;28;45446;-47
2023/08/10 09:47:14;;;;;;;;;4.25;3.25;;;;;23.68;47.52;101440.97;4998225;28;45411;-52
2023/08/10 09:50:00;;;;;;;;;4.00;4.00;;;;;23.69;47.54;101451.44;4997577;28;46168;-44
2023/08/10 09:52:26;;;;;;;;;3.00;3.00;;;;;23.69;47.84;101446.16;4979683;28;45769;-43
2023/08/10 09:54:56;;;;;;;;;5.00;5.00;;;;;23.72;47.68;101442.47;4997828;28;45428;-46
2023/08/10 09:57:22;;;;;;;;;5.75;4.00;;;;;23.74;47.64;101445.88;4998006;28;45243;-43
2023/08/10 09:59:48;;;;;;;;;4.00;4.00;;;;;23.76;48.12;101433.41;4997496;28;46376;-44
2023/08/10 10:02:15;;;;;;;;;3.25;3.25;;;;;23.76;47.59;101421.00;4997557;28;45643;-43
2023/08/10 10:04:45;;;;;;;;;3.25;3.25;;;;;23.78;47.61;101419.13;4997635;28;45332;-45
2023/08/10 10:07:11;;;;;;;;;5.25;3.00;;;;;23.77;48.12;101416.59;4997734;28;45609;-47
2023/08/10 10:09:38;;;;;;;;;2.50;2.50;;;;;23.78;48.16;101416.50;4997285;28;45376;-47
2023/08/10 10:12:14;;;;;;;;;5.00;4.00;;;;;23.81;47.67;101401.38;4997600;28;45255;-49
2023/08/10 10:14:42;;;;;;;;;5.00;3.75;;;;;23.80;48.09;101395.25;4997508;28;45482;-51
2023/08/10 10:17:09;;;;;;;;;3.50;3.50;;;;;23.82;48.15;101398.63;4997616;28;45412;-46
2023/08/10 10:19:35;;;;;;;;;4.25;4.00;;;;;23.82;47.59;101401.28;4997237;28;46215;-43
2023/08/10 10:22:01;;;;;;;;;3.25;3.25;;;;;23.83;47.95;101400.31;4997671;28;45351;-46
2023/08/10 10:24:28;;;;;;;;;6.00;3.75;;;;;23.84;48.20;101402.03;4997414;28;45557;-45
2023/08/10 10:27:02;;;;;;;;;3.25;3.25;;;;;23.85;48.19;101397.59;4997519;28;45346;-50
2023/08/10 10:29:41;;;;;;;;;5.75;4.00;;;;;23.85;47.73;101403.75;4996895;28;47113;-48
2023/08/10 10:32:09;;;;;;;;;3.00;3.00;;;;;23.86;48.33;101404.59;4997170;28;45306;-46
2023/08/10 10:34:36;;;;;;;;;4.25;3.50;;;;;23.86;48.34;101394.84;4997568;28;45263;-47
2023/08/10 10:37:17;;;;;;;;;4.00;4.00;;;;;23.88;48.19;101384.16;4997697;28;45641;-47
2023/08/10 10:39:50;;;;;;;;;4.25;4.25;;;;;23.89;47.98;101385.88;4978235;28;46354;-47
2023/08/10 10:42:16;;;;;;;;;6.50;3.75;;;;;23.92;48.36;101380.41;4996810;28;45770;-47
2023/08/10 10:45:05;;;;;;;;;5.00;3.50;;;;;23.92;48.26;101372.44;4996930;28;45336;-44
2023/08/10 10:47:38;;;;;;;;;4.00;4.00;;;;;23.91;48.28;101366.31;4997310;28;45606;-49
2023/08/10 10:50:36;;;;;;;;;3.00;2.00;;;;;23.91;48.25;101353.09;4996857;28;47088;-47
2023/08/10 10:53:11;;;;;;;;;4.50;3.00;;;;;23.92;48.11;101357.41;4963906;28;45359;-49
2023/08/10 10:55:41;;;;;;;;;4.00;3.00;;;;;23.91;48.73;101353.09;4997381;28;45299;-46
2023/08/10 10:58:09;;;;;;;;;3.25;3.25;;;;;23.92;48.36;101362.69;4996978;28;45701;-46
2023/08/10 11:00:36;;;;;;;;;5.25;3.25;;;;;23.94;48.20;101370.56;4997030;28;45324;-48
2023/08/10 11:03:04;;;;;;;;;5.25;3.75;;;;;23.94;48.58;101360.81;4996669;28;45682;-51
2023/08/10 11:05:29;;;;;;;;;5.00;3.50;;;;;23.93;48.78;101369.69;4979519;28;45449;-52
2023/08/10 11:07:55;;;;;;;;;3.25;3.25;;;;;23.97;48.29;101370.41;4996818;28;45235;-45
2023/08/10 11:10:24;;;;;;;;;3.50;3.00;;;;;23.98;49.08;101365.97;4996313;28;46325;-42
2023/08/10 11:12:51;;;;;;;;;3.50;3.00;;;;;23.97;48.39;101367.78;4995613;28;45763;-44
2023/08/10 11:15:17;;;;;;;;;4.00;4.00;;;;;24.02;48.10;101373.63;4996659;28;45222;-46
2023/08/10 11:17:48;;;;;;;;;4.00;2.00;;;;;24.02;48.04;101368.31;4996828;28;45460;-45
2023/08/10 11:20:15;;;;;;;;;3.25;3.25;;;;;24.03;48.58;101375.31;4996535;28;46419;-44
2023/08/10 11:22:48;;;;;;;;;3.00;3.00;;;;;24.04;48.59;101374.38;4996335;28;45269;-44